Avondale, Washington
Current Conditions -  °F | °C
As of 2:53 PM on Thursday 27 Nov 2014 (Local Time) from KBFI Reporting Station
Overcast Overcast  
Wind Chill: 59°   Ceiling: 2700
Heat Index: 59°   Visibility: 10mi
Dew Point: 50°   Wind: 12mph
Humidity: 72%   Direction: 180°S
Pressure: 29.78"   Gusts: 22mph
Location:  47.6833°N, 122.123°W
Report Text: KBFI 272253Z 18010G19KT 10SM SCT021 BKN027 OVC039 15/10 A2978 RMK AO2 PK WND 17026/2229 SLP085 T01500100
Loading
Personal Weather Stations






























Interactive Weather Map New forecast layout! Learn more

10-Day Weather Forecast

Advertisements
Track Severe Weather on mobile